sensor_id;sensor_type;location;lat;lon;timestamp;P1;durP1;ratioP1;P2;durP2;ratioP2
74293;SDS011;62688;59.904;10.738;2022-09-29T00:00:27;1.52;;;1.10;;
74293;SDS011;62688;59.904;10.738;2022-09-29T00:02:53;2.00;;;1.40;;
74293;SDS011;62688;59.904;10.738;2022-09-29T00:05:19;1.75;;;1.27;;
74293;SDS011;62688;59.904;10.738;2022-09-29T00:07:45;1.77;;;1.30;;
74293;SDS011;62688;59.904;10.738;2022-09-29T00:10:11;1.23;;;1.13;;
74293;SDS011;62688;59.904;10.738;2022-09-29T00:12:36;2.92;;;1.45;;
74293;SDS011;62688;59.904;10.738;2022-09-29T00:15:02;1.70;;;1.10;;
74293;SDS011;62688;59.904;10.738;2022-09-29T00:17:29;1.95;;;1.10;;
74293;SDS011;62688;59.904;10.738;2022-09-29T00:19:54;1.65;;;1.27;;
74293;SDS011;62688;59.904;10.738;2022-09-29T00:22:20;1.17;;;1.08;;
74293;SDS011;62688;59.904;10.738;2022-09-29T00:24:46;2.05;;;1.10;;
74293;SDS011;62688;59.904;10.738;2022-09-29T00:27:15;1.25;;;1.15;;
74293;SDS011;62688;59.904;10.738;2022-09-29T00:29:42;1.20;;;1.10;;
74293;SDS011;62688;59.904;10.738;2022-09-29T00:32:08;1.17;;;1.08;;
74293;SDS011;62688;59.904;10.738;2022-09-29T00:34:33;1.15;;;1.05;;
74293;SDS011;62688;59.904;10.738;2022-09-29T00:36:59;2.10;;;1.35;;
74293;SDS011;62688;59.904;10.738;2022-09-29T00:39:25;1.42;;;1.30;;
74293;SDS011;62688;59.904;10.738;2022-09-29T00:41:51;1.13;;;1.02;;
74293;SDS011;62688;59.904;10.738;2022-09-29T00:46:56;2.20;;;1.17;;
74293;SDS011;62688;59.904;10.738;2022-09-29T00:54:50;3.40;;;1.13;;
74293;SDS011;62688;59.904;10.738;2022-09-29T00:57:20;1.25;;;1.00;;
74293;SDS011;62688;59.904;10.738;2022-09-29T00:59:56;1.70;;;1.17;;
74293;SDS011;62688;59.904;10.738;2022-09-29T01:02:35;1.40;;;1.08;;
74293;SDS011;62688;59.904;10.738;2022-09-29T01:05:05;2.65;;;1.50;;
74293;SDS011;62688;59.904;10.738;2022-09-29T01:07:36;1.35;;;1.25;;
74293;SDS011;62688;59.904;10.738;2022-09-29T01:10:03;2.38;;;1.08;;
74293;SDS011;62688;59.904;10.738;2022-09-29T01:12:30;1.70;;;1.02;;
74293;SDS011;62688;59.904;10.738;2022-09-29T01:14:56;1.65;;;1.10;;
74293;SDS011;62688;59.904;10.738;2022-09-29T01:17:22;1.42;;;1.17;;
74293;SDS011;62688;59.904;10.738;2022-09-29T01:22:36;1.73;;;1.10;;
74293;SDS011;62688;59.904;10.738;2022-09-29T01:33:43;1.25;;;1.13;;
74293;SDS011;62688;59.904;10.738;2022-09-29T01:36:34;1.25;;;1.13;;
74293;SDS011;62688;59.904;10.738;2022-09-29T01:42:11;1.35;;;1.13;;
74293;SDS011;62688;59.904;10.738;2022-09-29T01:47:15;1.88;;;1.38;;
74293;SDS011;62688;59.904;10.738;2022-09-29T01:49:47;2.17;;;1.27;;
74293;SDS011;62688;59.904;10.738;2022-09-29T01:52:18;1.65;;;1.05;;
74293;SDS011;62688;59.904;10.738;2022-09-29T02:00:20;2.15;;;1.30;;
74293;SDS011;62688;59.904;10.738;2022-09-29T02:08:01;2.85;;;1.40;;
74293;SDS011;62688;59.904;10.738;2022-09-29T02:10:34;1.13;;;1.00;;
74293;SDS011;62688;59.904;10.738;2022-09-29T02:13:05;1.60;;;1.08;;
74293;SDS011;62688;59.904;10.738;2022-09-29T02:15:34;2.28;;;1.20;;
74293;SDS011;62688;59.904;10.738;2022-09-29T02:18:08;3.75;;;1.25;;
74293;SDS011;62688;59.904;10.738;2022-09-29T02:20:37;1.55;;;1.10;;
74293;SDS011;62688;59.904;10.738;2022-09-29T02:23:03;1.20;;;1.10;;
74293;SDS011;62688;59.904;10.738;2022-09-29T02:25:28;1.30;;;1.13;;
74293;SDS011;62688;59.904;10.738;2022-09-29T02:27:58;1.88;;;1.33;;
74293;SDS011;62688;59.904;10.738;2022-09-29T02:30:24;1.38;;;1.10;;
74293;SDS011;62688;59.904;10.738;2022-09-29T02:32:50;1.30;;;1.20;;
74293;SDS011;62688;59.904;10.738;2022-09-29T02:35:15;1.25;;;1.15;;
74293;SDS011;62688;59.904;10.738;2022-09-29T02:46:05;2.60;;;1.20;;
74293;SDS011;62688;59.904;10.738;2022-09-29T02:51:45;1.20;;;1.10;;
74293;SDS011;62688;59.904;10.738;2022-09-29T02:56:54;2.05;;;1.08;;
74293;SDS011;62688;59.904;10.738;2022-09-29T03:02:30;2.08;;;1.30;;
74293;SDS011;62688;59.904;10.738;2022-09-29T03:04:56;1.83;;;1.70;;
74293;SDS011;62688;59.904;10.738;2022-09-29T03:07:22;1.25;;;1.10;;
74293;SDS011;62688;59.904;10.738;2022-09-29T03:09:47;1.42;;;1.10;;
74293;SDS011;62688;59.904;10.738;2022-09-29T03:12:13;1.70;;;1.40;;
74293;SDS011;62688;59.904;10.738;2022-09-29T03:14:39;4.40;;;1.20;;
74293;SDS011;62688;59.904;10.738;2022-09-29T03:22:22;4.35;;;1.48;;
74293;SDS011;62688;59.904;10.738;2022-09-29T03:24:48;1.38;;;1.27;;
74293;SDS011;62688;59.904;10.738;2022-09-29T03:27:14;1.83;;;1.08;;
74293;SDS011;62688;59.904;10.738;2022-09-29T03:29:39;2.25;;;1.20;;
74293;SDS011;62688;59.904;10.738;2022-09-29T03:32:05;1.80;;;1.30;;
74293;SDS011;62688;59.904;10.738;2022-09-29T03:34:31;1.77;;;1.25;;
74293;SDS011;62688;59.904;10.738;2022-09-29T03:36:57;1.27;;;1.17;;
74293;SDS011;62688;59.904;10.738;2022-09-29T03:39:23;1.33;;;1.10;;
74293;SDS011;62688;59.904;10.738;2022-09-29T03:41:49;1.23;;;1.13;;
74293;SDS011;62688;59.904;10.738;2022-09-29T03:44:14;3.22;;;1.33;;
74293;SDS011;62688;59.904;10.738;2022-09-29T03:46:40;1.50;;;1.30;;
74293;SDS011;62688;59.904;10.738;2022-09-29T03:49:08;1.88;;;1.30;;
74293;SDS011;62688;59.904;10.738;2022-09-29T03:51:35;1.10;;;1.00;;
74293;SDS011;62688;59.904;10.738;2022-09-29T03:54:01;1.58;;;1.48;;
74293;SDS011;62688;59.904;10.738;2022-09-29T03:56:26;1.67;;;1.50;;
74293;SDS011;62688;59.904;10.738;2022-09-29T03:58:52;1.60;;;1.30;;
74293;SDS011;62688;59.904;10.738;2022-09-29T04:01:18;1.35;;;1.25;;
74293;SDS011;62688;59.904;10.738;2022-09-29T04:03:44;2.47;;;1.25;;
74293;SDS011;62688;59.904;10.738;2022-09-29T04:06:09;1.10;;;1.00;;
74293;SDS011;62688;59.904;10.738;2022-09-29T04:08:35;3.97;;;1.50;;
74293;SDS011;62688;59.904;10.738;2022-09-29T04:11:01;2.55;;;1.30;;
74293;SDS011;62688;59.904;10.738;2022-09-29T04:13:27;1.52;;;1.27;;
74293;SDS011;62688;59.904;10.738;2022-09-29T04:15:56;1.77;;;1.33;;
74293;SDS011;62688;59.904;10.738;2022-09-29T04:18:25;1.40;;;1.30;;
74293;SDS011;62688;59.904;10.738;2022-09-29T04:20:51;1.30;;;1.20;;
74293;SDS011;62688;59.904;10.738;2022-09-29T04:23:18;1.30;;;1.20;;
74293;SDS011;62688;59.904;10.738;2022-09-29T04:25:44;4.57;;;1.35;;
74293;SDS011;62688;59.904;10.738;2022-09-29T04:28:10;1.48;;;1.15;;
74293;SDS011;62688;59.904;10.738;2022-09-29T04:30:36;1.25;;;1.15;;
74293;SDS011;62688;59.904;10.738;2022-09-29T04:33:02;1.35;;;1.10;;
74293;SDS011;62688;59.904;10.738;2022-09-29T04:35:27;1.23;;;1.13;;
74293;SDS011;62688;59.904;10.738;2022-09-29T04:37:54;1.88;;;1.33;;
74293;SDS011;62688;59.904;10.738;2022-09-29T04:40:24;2.58;;;1.45;;
74293;SDS011;62688;59.904;10.738;2022-09-29T04:42:50;1.40;;;1.30;;
74293;SDS011;62688;59.904;10.738;2022-09-29T04:45:15;2.50;;;1.00;;
74293;SDS011;62688;59.904;10.738;2022-09-29T04:47:41;1.50;;;1.35;;
74293;SDS011;62688;59.904;10.738;2022-09-29T04:50:07;1.75;;;1.15;;
74293;SDS011;62688;59.904;10.738;2022-09-29T04:52:33;1.30;;;1.20;;
74293;SDS011;62688;59.904;10.738;2022-09-29T04:55:00;1.30;;;1.00;;
74293;SDS011;62688;59.904;10.738;2022-09-29T04:57:27;1.23;;;1.13;;
74293;SDS011;62688;59.904;10.738;2022-09-29T04:59:52;1.25;;;1.15;;
74293;SDS011;62688;59.904;10.738;2022-09-29T05:02:18;1.38;;;1.27;;
74293;SDS011;62688;59.904;10.738;2022-09-29T05:04:44;2.90;;;1.40;;
74293;SDS011;62688;59.904;10.738;2022-09-29T05:07:11;2.75;;;1.27;;
74293;SDS011;62688;59.904;10.738;2022-09-29T05:09:37;1.67;;;1.05;;
74293;SDS011;62688;59.904;10.738;2022-09-29T05:12:03;1.83;;;1.10;;
74293;SDS011;62688;59.904;10.738;2022-09-29T05:14:29;2.00;;;1.38;;
74293;SDS011;62688;59.904;10.738;2022-09-29T05:16:55;1.88;;;1.60;;
74293;SDS011;62688;59.904;10.738;2022-09-29T05:19:21;2.65;;;1.50;;
74293;SDS011;62688;59.904;10.738;2022-09-29T05:21:47;2.00;;;1.70;;
74293;SDS011;62688;59.904;10.738;2022-09-29T05:24:12;2.97;;;2.10;;
74293;SDS011;62688;59.904;10.738;2022-09-29T05:26:38;1.95;;;1.70;;
74293;SDS011;62688;59.904;10.738;2022-09-29T05:29:04;2.00;;;1.50;;
74293;SDS011;62688;59.904;10.738;2022-09-29T05:31:29;1.67;;;1.20;;
74293;SDS011;62688;59.904;10.738;2022-09-29T05:33:55;2.17;;;1.25;;
74293;SDS011;62688;59.904;10.738;2022-09-29T05:36:21;1.35;;;1.20;;
74293;SDS011;62688;59.904;10.738;2022-09-29T05:38:48;1.50;;;1.40;;
74293;SDS011;62688;59.904;10.738;2022-09-29T05:41:14;3.00;;;1.65;;
74293;SDS011;62688;59.904;10.738;2022-09-29T05:43:46;1.30;;;1.05;;
74293;SDS011;62688;59.904;10.738;2022-09-29T05:46:12;2.35;;;1.30;;
74293;SDS011;62688;59.904;10.738;2022-09-29T05:48:39;1.88;;;1.50;;
74293;SDS011;62688;59.904;10.738;2022-09-29T05:51:08;1.98;;;1.30;;
74293;SDS011;62688;59.904;10.738;2022-09-29T05:53:35;4.25;;;1.52;;
74293;SDS011;62688;59.904;10.738;2022-09-29T05:56:07;1.77;;;1.20;;
74293;SDS011;62688;59.904;10.738;2022-09-29T05:58:36;2.40;;;1.20;;
74293;SDS011;62688;59.904;10.738;2022-09-29T06:01:05;1.35;;;1.25;;
74293;SDS011;62688;59.904;10.738;2022-09-29T06:03:33;3.50;;;1.10;;
74293;SDS011;62688;59.904;10.738;2022-09-29T06:06:10;2.00;;;1.20;;
74293;SDS011;62688;59.904;10.738;2022-09-29T06:08:37;1.42;;;1.30;;
74293;SDS011;62688;59.904;10.738;2022-09-29T06:11:04;0.95;;;0.85;;
74293;SDS011;62688;59.904;10.738;2022-09-29T06:13:31;1.83;;;1.50;;
74293;SDS011;62688;59.904;10.738;2022-09-29T06:15:57;1.83;;;1.20;;
74293;SDS011;62688;59.904;10.738;2022-09-29T06:18:24;2.45;;;1.60;;
74293;SDS011;62688;59.904;10.738;2022-09-29T06:20:49;1.60;;;1.35;;
74293;SDS011;62688;59.904;10.738;2022-09-29T06:23:15;1.70;;;1.23;;
74293;SDS011;62688;59.904;10.738;2022-09-29T06:25:40;1.70;;;1.23;;
74293;SDS011;62688;59.904;10.738;2022-09-29T06:28:06;2.50;;;1.33;;
74293;SDS011;62688;59.904;10.738;2022-09-29T06:30:31;1.50;;;1.30;;
74293;SDS011;62688;59.904;10.738;2022-09-29T06:32:57;1.23;;;1.13;;
74293;SDS011;62688;59.904;10.738;2022-09-29T06:35:23;1.70;;;1.23;;
74293;SDS011;62688;59.904;10.738;2022-09-29T06:38:07;3.22;;;1.35;;
74293;SDS011;62688;59.904;10.738;2022-09-29T06:40:33;2.05;;;1.52;;
74293;SDS011;62688;59.904;10.738;2022-09-29T06:42:58;2.13;;;1.20;;
74293;SDS011;62688;59.904;10.738;2022-09-29T06:45:24;1.30;;;1.20;;
74293;SDS011;62688;59.904;10.738;2022-09-29T06:47:50;2.08;;;1.17;;
74293;SDS011;62688;59.904;10.738;2022-09-29T06:50:21;6.60;;;1.15;;
74293;SDS011;62688;59.904;10.738;2022-09-29T06:52:46;1.40;;;1.30;;
74293;SDS011;62688;59.904;10.738;2022-09-29T06:55:14;3.08;;;1.35;;
74293;SDS011;62688;59.904;10.738;2022-09-29T06:57:39;2.63;;;1.35;;
74293;SDS011;62688;59.904;10.738;2022-09-29T07:00:05;2.00;;;1.35;;
74293;SDS011;62688;59.904;10.738;2022-09-29T07:02:31;1.63;;;1.27;;
74293;SDS011;62688;59.904;10.738;2022-09-29T07:04:57;2.80;;;1.20;;
74293;SDS011;62688;59.904;10.738;2022-09-29T07:07:23;3.08;;;1.20;;
74293;SDS011;62688;59.904;10.738;2022-09-29T07:09:48;3.10;;;1.42;;
74293;SDS011;62688;59.904;10.738;2022-09-29T07:12:14;1.40;;;1.30;;
74293;SDS011;62688;59.904;10.738;2022-09-29T07:14:39;1.48;;;1.33;;
74293;SDS011;62688;59.904;10.738;2022-09-29T07:17:05;1.25;;;1.15;;
74293;SDS011;62688;59.904;10.738;2022-09-29T07:19:30;1.50;;;1.23;;
74293;SDS011;62688;59.904;10.738;2022-09-29T07:21:56;1.48;;;1.38;;
74293;SDS011;62688;59.904;10.738;2022-09-29T07:24:22;3.13;;;1.60;;
74293;SDS011;62688;59.904;10.738;2022-09-29T07:26:49;1.85;;;1.27;;
74293;SDS011;62688;59.904;10.738;2022-09-29T07:29:14;2.03;;;1.05;;
74293;SDS011;62688;59.904;10.738;2022-09-29T07:31:40;3.10;;;1.17;;
74293;SDS011;62688;59.904;10.738;2022-09-29T07:34:06;2.58;;;1.10;;
74293;SDS011;62688;59.904;10.738;2022-09-29T07:36:31;1.25;;;1.08;;
74293;SDS011;62688;59.904;10.738;2022-09-29T07:38:57;1.95;;;1.42;;
74293;SDS011;62688;59.904;10.738;2022-09-29T07:41:23;2.95;;;1.20;;
74293;SDS011;62688;59.904;10.738;2022-09-29T07:43:48;1.55;;;0.90;;
74293;SDS011;62688;59.904;10.738;2022-09-29T07:46:15;2.42;;;1.00;;
74293;SDS011;62688;59.904;10.738;2022-09-29T07:48:41;1.80;;;1.10;;
74293;SDS011;62688;59.904;10.738;2022-09-29T07:51:09;2.75;;;1.20;;
74293;SDS011;62688;59.904;10.738;2022-09-29T07:53:38;1.33;;;1.20;;
74293;SDS011;62688;59.904;10.738;2022-09-29T07:56:05;1.77;;;1.15;;
74293;SDS011;62688;59.904;10.738;2022-09-29T07:58:33;2.25;;;1.20;;
74293;SDS011;62688;59.904;10.738;2022-09-29T08:01:00;1.88;;;1.25;;
74293;SDS011;62688;59.904;10.738;2022-09-29T08:03:26;2.53;;;1.25;;
74293;SDS011;62688;59.904;10.738;2022-09-29T08:05:52;5.13;;;1.40;;
74293;SDS011;62688;59.904;10.738;2022-09-29T08:08:18;4.90;;;1.10;;
74293;SDS011;62688;59.904;10.738;2022-09-29T08:10:43;2.30;;;1.45;;
74293;SDS011;62688;59.904;10.738;2022-09-29T08:13:09;1.98;;;1.33;;
74293;SDS011;62688;59.904;10.738;2022-09-29T08:15:35;3.05;;;1.15;;
74293;SDS011;62688;59.904;10.738;2022-09-29T08:18:00;1.30;;;1.10;;
74293;SDS011;62688;59.904;10.738;2022-09-29T08:20:26;3.85;;;1.00;;
74293;SDS011;62688;59.904;10.738;2022-09-29T08:22:52;3.83;;;1.08;;
74293;SDS011;62688;59.904;10.738;2022-09-29T08:25:21;1.92;;;1.23;;
74293;SDS011;62688;59.904;10.738;2022-09-29T08:27:47;1.40;;;1.30;;
74293;SDS011;62688;59.904;10.738;2022-09-29T08:30:13;2.33;;;1.08;;
74293;SDS011;62688;59.904;10.738;2022-09-29T08:32:39;3.15;;;1.30;;
74293;SDS011;62688;59.904;10.738;2022-09-29T08:35:05;4.65;;;1.25;;
74293;SDS011;62688;59.904;10.738;2022-09-29T08:37:31;2.03;;;1.27;;
74293;SDS011;62688;59.904;10.738;2022-09-29T08:39:57;2.70;;;1.67;;
74293;SDS011;62688;59.904;10.738;2022-09-29T08:45:12;3.60;;;1.40;;
74293;SDS011;62688;59.904;10.738;2022-09-29T08:47:46;1.55;;;1.25;;
74293;SDS011;62688;59.904;10.738;2022-09-29T08:50:29;6.68;;;1.02;;
74293;SDS011;62688;59.904;10.738;2022-09-29T08:53:01;2.25;;;0.90;;
74293;SDS011;62688;59.904;10.738;2022-09-29T08:55:46;1.23;;;1.10;;
74293;SDS011;62688;59.904;10.738;2022-09-29T08:58:18;2.47;;;0.93;;
74293;SDS011;62688;59.904;10.738;2022-09-29T09:00:47;1.40;;;1.10;;
74293;SDS011;62688;59.904;10.738;2022-09-29T09:14:50;1.25;;;1.05;;
74293;SDS011;62688;59.904;10.738;2022-09-29T09:23:24;1.50;;;1.30;;
74293;SDS011;62688;59.904;10.738;2022-09-29T09:26:04;2.58;;;0.90;;
74293;SDS011;62688;59.904;10.738;2022-09-29T09:28:34;2.65;;;1.20;;
74293;SDS011;62688;59.904;10.738;2022-09-29T09:31:07;1.60;;;0.85;;
74293;SDS011;62688;59.904;10.738;2022-09-29T09:33:53;1.40;;;1.15;;
74293;SDS011;62688;59.904;10.738;2022-09-29T09:36:27;1.45;;;1.10;;
74293;SDS011;62688;59.904;10.738;2022-09-29T09:38:56;4.32;;;1.05;;
74293;SDS011;62688;59.904;10.738;2022-09-29T09:41:26;1.80;;;1.30;;
74293;SDS011;62688;59.904;10.738;2022-09-29T09:44:00;1.20;;;0.85;;
74293;SDS011;62688;59.904;10.738;2022-09-29T09:46:35;1.30;;;1.08;;
74293;SDS011;62688;59.904;10.738;2022-09-29T09:55:04;6.85;;;1.15;;
74293;SDS011;62688;59.904;10.738;2022-09-29T10:00:24;0.88;;;0.80;;
74293;SDS011;62688;59.904;10.738;2022-09-29T10:03:13;0.93;;;0.82;;
74293;SDS011;62688;59.904;10.738;2022-09-29T10:05:41;1.85;;;1.30;;
74293;SDS011;62688;59.904;10.738;2022-09-29T10:08:10;1.35;;;0.90;;
74293;SDS011;62688;59.904;10.738;2022-09-29T10:10:39;2.53;;;2.08;;
74293;SDS011;62688;59.904;10.738;2022-09-29T10:13:08;1.60;;;1.20;;
74293;SDS011;62688;59.904;10.738;2022-09-29T10:15:38;1.40;;;1.20;;
74293;SDS011;62688;59.904;10.738;2022-09-29T10:21:20;1.40;;;0.95;;
74293;SDS011;62688;59.904;10.738;2022-09-29T10:23:55;0.85;;;0.77;;
74293;SDS011;62688;59.904;10.738;2022-09-29T10:33:59;3.40;;;0.85;;
74293;SDS011;62688;59.904;10.738;2022-09-29T10:36:30;1.10;;;0.98;;
74293;SDS011;62688;59.904;10.738;2022-09-29T10:38:58;1.00;;;1.00;;
74293;SDS011;62688;59.904;10.738;2022-09-29T10:41:23;4.57;;;1.08;;
74293;SDS011;62688;59.904;10.738;2022-09-29T10:43:49;0.90;;;0.90;;
74293;SDS011;62688;59.904;10.738;2022-09-29T10:49:17;1.85;;;0.90;;
74293;SDS011;62688;59.904;10.738;2022-09-29T10:52:33;1.13;;;0.82;;
74293;SDS011;62688;59.904;10.738;2022-09-29T10:54:56;1.25;;;0.60;;
74293;SDS011;62688;59.904;10.738;2022-09-29T10:57:27;0.70;;;0.70;;
74293;SDS011;62688;59.904;10.738;2022-09-29T10:59:55;0.98;;;0.85;;
74293;SDS011;62688;59.904;10.738;2022-09-29T11:04:51;1.05;;;0.90;;
74293;SDS011;62688;59.904;10.738;2022-09-29T11:07:20;0.77;;;0.60;;
74293;SDS011;62688;59.904;10.738;2022-09-29T11:09:46;1.30;;;0.77;;
74293;SDS011;62688;59.904;10.738;2022-09-29T11:14:56;0.82;;;0.60;;
74293;SDS011;62688;59.904;10.738;2022-09-29T11:17:24;0.90;;;0.70;;
74293;SDS011;62688;59.904;10.738;2022-09-29T11:19:51;0.70;;;0.60;;
74293;SDS011;62688;59.904;10.738;2022-09-29T11:25:13;0.60;;;0.50;;
74293;SDS011;62688;59.904;10.738;2022-09-29T11:30:19;1.02;;;0.70;;
74293;SDS011;62688;59.904;10.738;2022-09-29T11:32:54;0.90;;;0.90;;
74293;SDS011;62688;59.904;10.738;2022-09-29T11:52:27;0.70;;;0.70;;
74293;SDS011;62688;59.904;10.738;2022-09-29T12:03:22;2.85;;;1.00;;
74293;SDS011;62688;59.904;10.738;2022-09-29T12:06:20;1.02;;;0.88;;
74293;SDS011;62688;59.904;10.738;2022-09-29T12:14:02;1.73;;;0.93;;
74293;SDS011;62688;59.904;10.738;2022-09-29T12:16:51;2.13;;;0.95;;
74293;SDS011;62688;59.904;10.738;2022-09-29T12:19:22;1.45;;;0.70;;
74293;SDS011;62688;59.904;10.738;2022-09-29T12:21:53;1.02;;;0.88;;
74293;SDS011;62688;59.904;10.738;2022-09-29T12:24:35;0.75;;;0.75;;
74293;SDS011;62688;59.904;10.738;2022-09-29T12:27:27;0.82;;;0.82;;
74293;SDS011;62688;59.904;10.738;2022-09-29T12:30:01;1.00;;;0.80;;
74293;SDS011;62688;59.904;10.738;2022-09-29T12:32:28;0.60;;;0.60;;
74293;SDS011;62688;59.904;10.738;2022-09-29T12:35:08;1.15;;;0.90;;
74293;SDS011;62688;59.904;10.738;2022-09-29T12:38:00;0.90;;;0.68;;
74293;SDS011;62688;59.904;10.738;2022-09-29T12:51:55;0.88;;;0.75;;
74293;SDS011;62688;59.904;10.738;2022-09-29T12:57:11;2.15;;;0.70;;
74293;SDS011;62688;59.904;10.738;2022-09-29T12:59:42;2.50;;;0.77;;
74293;SDS011;62688;59.904;10.738;2022-09-29T13:02:33;0.85;;;0.70;;
74293;SDS011;62688;59.904;10.738;2022-09-29T13:08:39;0.82;;;0.70;;
74293;SDS011;62688;59.904;10.738;2022-09-29T13:26:17;0.77;;;0.70;;
74293;SDS011;62688;59.904;10.738;2022-09-29T13:28:33;2.95;;;1.10;;
74293;SDS011;62688;59.904;10.738;2022-09-29T13:31:08;0.75;;;0.75;;
74293;SDS011;62688;59.904;10.738;2022-09-29T13:33:38;2.05;;;0.80;;
74293;SDS011;62688;59.904;10.738;2022-09-29T13:36:04;1.60;;;0.60;;
74293;SDS011;62688;59.904;10.738;2022-09-29T13:38:31;0.90;;;0.90;;
74293;SDS011;62688;59.904;10.738;2022-09-29T13:51:45;0.90;;;0.80;;
74293;SDS011;62688;59.904;10.738;2022-09-29T14:02:40;0.73;;;0.60;;
74293;SDS011;62688;59.904;10.738;2022-09-29T14:10:26;2.78;;;1.20;;
74293;SDS011;62688;59.904;10.738;2022-09-29T14:15:42;1.80;;;0.73;;
74293;SDS011;62688;59.904;10.738;2022-09-29T14:20:57;0.60;;;0.60;;
74293;SDS011;62688;59.904;10.738;2022-09-29T14:26:56;0.88;;;0.73;;
74293;SDS011;62688;59.904;10.738;2022-09-29T14:29:22;0.90;;;0.70;;
74293;SDS011;62688;59.904;10.738;2022-09-29T14:31:52;1.00;;;0.90;;
74293;SDS011;62688;59.904;10.738;2022-09-29T14:34:22;0.65;;;0.65;;
74293;SDS011;62688;59.904;10.738;2022-09-29T14:36:52;0.70;;;0.70;;
74293;SDS011;62688;59.904;10.738;2022-09-29T14:39:20;0.93;;;0.80;;
74293;SDS011;62688;59.904;10.738;2022-09-29T14:41:48;0.63;;;0.63;;
74293;SDS011;62688;59.904;10.738;2022-09-29T14:58:55;1.77;;;1.00;;
74293;SDS011;62688;59.904;10.738;2022-09-29T15:04:38;1.17;;;0.90;;
74293;SDS011;62688;59.904;10.738;2022-09-29T15:07:04;1.67;;;0.80;;
74293;SDS011;62688;59.904;10.738;2022-09-29T15:09:35;0.80;;;0.80;;
74293;SDS011;62688;59.904;10.738;2022-09-29T15:12:01;1.60;;;0.90;;
74293;SDS011;62688;59.904;10.738;2022-09-29T15:14:31;0.90;;;0.88;;
74293;SDS011;62688;59.904;10.738;2022-09-29T15:19:43;1.42;;;1.10;;
74293;SDS011;62688;59.904;10.738;2022-09-29T15:27:54;1.02;;;0.93;;
74293;SDS011;62688;59.904;10.738;2022-09-29T15:30:25;2.97;;;1.00;;
74293;SDS011;62688;59.904;10.738;2022-09-29T15:32:53;1.63;;;1.17;;
74293;SDS011;62688;59.904;10.738;2022-09-29T15:35:27;1.30;;;1.10;;
74293;SDS011;62688;59.904;10.738;2022-09-29T15:37:56;1.67;;;1.23;;
74293;SDS011;62688;59.904;10.738;2022-09-29T15:40:34;7.93;;;1.48;;
74293;SDS011;62688;59.904;10.738;2022-09-29T15:43:17;1.13;;;1.02;;
74293;SDS011;62688;59.904;10.738;2022-09-29T15:46:00;1.25;;;1.08;;
74293;SDS011;62688;59.904;10.738;2022-09-29T15:48:36;1.15;;;0.90;;
74293;SDS011;62688;59.904;10.738;2022-09-29T15:51:02;1.33;;;0.82;;
74293;SDS011;62688;59.904;10.738;2022-09-29T15:53:28;0.93;;;0.88;;
74293;SDS011;62688;59.904;10.738;2022-09-29T15:55:55;1.65;;;0.77;;
74293;SDS011;62688;59.904;10.738;2022-09-29T16:00:49;1.20;;;0.80;;
74293;SDS011;62688;59.904;10.738;2022-09-29T16:03:17;2.10;;;0.82;;
74293;SDS011;62688;59.904;10.738;2022-09-29T16:08:21;0.93;;;0.93;;
74293;SDS011;62688;59.904;10.738;2022-09-29T16:10:50;1.15;;;1.05;;
74293;SDS011;62688;59.904;10.738;2022-09-29T16:13:21;4.70;;;0.90;;
74293;SDS011;62688;59.904;10.738;2022-09-29T16:15:53;1.65;;;0.80;;
74293;SDS011;62688;59.904;10.738;2022-09-29T16:20:50;1.88;;;0.90;;
74293;SDS011;62688;59.904;10.738;2022-09-29T16:28:33;0.88;;;0.80;;
74293;SDS011;62688;59.904;10.738;2022-09-29T16:31:01;1.25;;;0.98;;
74293;SDS011;62688;59.904;10.738;2022-09-29T16:33:32;1.20;;;1.10;;
74293;SDS011;62688;59.904;10.738;2022-09-29T16:36:03;1.80;;;0.90;;
74293;SDS011;62688;59.904;10.738;2022-09-29T16:38:38;1.20;;;1.10;;
74293;SDS011;62688;59.904;10.738;2022-09-29T16:41:14;2.95;;;1.27;;
74293;SDS011;62688;59.904;10.738;2022-09-29T16:43:44;3.50;;;1.20;;
74293;SDS011;62688;59.904;10.738;2022-09-29T16:46:15;2.33;;;1.25;;
74293;SDS011;62688;59.904;10.738;2022-09-29T16:48:44;1.80;;;1.33;;
74293;SDS011;62688;59.904;10.738;2022-09-29T16:51:17;1.38;;;1.27;;
74293;SDS011;62688;59.904;10.738;2022-09-29T16:53:46;2.50;;;1.60;;
74293;SDS011;62688;59.904;10.738;2022-09-29T16:56:15;2.05;;;1.40;;
74293;SDS011;62688;59.904;10.738;2022-09-29T17:01:21;2.40;;;1.38;;
74293;SDS011;62688;59.904;10.738;2022-09-29T17:03:48;1.13;;;1.02;;
74293;SDS011;62688;59.904;10.738;2022-09-29T17:06:14;2.28;;;1.50;;
74293;SDS011;62688;59.904;10.738;2022-09-29T17:08:39;2.30;;;1.55;;
74293;SDS011;62688;59.904;10.738;2022-09-29T17:11:06;4.75;;;2.40;;
74293;SDS011;62688;59.904;10.738;2022-09-29T17:13:33;5.03;;;2.20;;
74293;SDS011;62688;59.904;10.738;2022-09-29T17:15:59;8.48;;;3.75;;
74293;SDS011;62688;59.904;10.738;2022-09-29T17:18:25;15.27;;;5.38;;
74293;SDS011;62688;59.904;10.738;2022-09-29T17:20:53;12.57;;;4.13;;
74293;SDS011;62688;59.904;10.738;2022-09-29T17:23:18;10.63;;;3.90;;
74293;SDS011;62688;59.904;10.738;2022-09-29T17:25:44;11.68;;;4.72;;
74293;SDS011;62688;59.904;10.738;2022-09-29T17:28:16;31.80;;;10.48;;
74293;SDS011;62688;59.904;10.738;2022-09-29T17:30:45;17.00;;;5.60;;
74293;SDS011;62688;59.904;10.738;2022-09-29T17:33:12;12.07;;;4.38;;
74293;SDS011;62688;59.904;10.738;2022-09-29T17:35:40;3.88;;;2.53;;
74293;SDS011;62688;59.904;10.738;2022-09-29T17:38:09;2.70;;;1.63;;
74293;SDS011;62688;59.904;10.738;2022-09-29T17:43:08;2.53;;;1.50;;
74293;SDS011;62688;59.904;10.738;2022-09-29T17:45:34;2.17;;;1.50;;
74293;SDS011;62688;59.904;10.738;2022-09-29T17:48:01;4.13;;;1.73;;
74293;SDS011;62688;59.904;10.738;2022-09-29T17:50:29;3.92;;;1.88;;
74293;SDS011;62688;59.904;10.738;2022-09-29T17:53:00;4.30;;;1.98;;
74293;SDS011;62688;59.904;10.738;2022-09-29T17:55:28;7.32;;;2.05;;
74293;SDS011;62688;59.904;10.738;2022-09-29T17:57:53;2.30;;;1.63;;
74293;SDS011;62688;59.904;10.738;2022-09-29T18:02:47;2.13;;;1.73;;
74293;SDS011;62688;59.904;10.738;2022-09-29T18:05:14;1.77;;;1.60;;
74293;SDS011;62688;59.904;10.738;2022-09-29T18:07:43;3.38;;;1.83;;
74293;SDS011;62688;59.904;10.738;2022-09-29T18:10:19;2.88;;;1.95;;
74293;SDS011;62688;59.904;10.738;2022-09-29T18:12:55;5.95;;;1.88;;
74293;SDS011;62688;59.904;10.738;2022-09-29T18:15:21;2.30;;;1.60;;
74293;SDS011;62688;59.904;10.738;2022-09-29T18:17:48;2.47;;;1.65;;
74293;SDS011;62688;59.904;10.738;2022-09-29T18:20:15;2.58;;;1.95;;
74293;SDS011;62688;59.904;10.738;2022-09-29T18:22:42;2.05;;;1.50;;
74293;SDS011;62688;59.904;10.738;2022-09-29T18:25:09;3.38;;;1.85;;
74293;SDS011;62688;59.904;10.738;2022-09-29T18:27:35;5.13;;;2.00;;
74293;SDS011;62688;59.904;10.738;2022-09-29T18:32:48;1.77;;;1.60;;
74293;SDS011;62688;59.904;10.738;2022-09-29T18:35:16;1.65;;;1.30;;
74293;SDS011;62688;59.904;10.738;2022-09-29T18:37:44;4.45;;;2.10;;
74293;SDS011;62688;59.904;10.738;2022-09-29T18:40:10;3.90;;;1.77;;
74293;SDS011;62688;59.904;10.738;2022-09-29T18:42:39;4.03;;;2.00;;
74293;SDS011;62688;59.904;10.738;2022-09-29T18:45:13;5.90;;;2.75;;
74293;SDS011;62688;59.904;10.738;2022-09-29T18:47:42;4.30;;;3.03;;
74293;SDS011;62688;59.904;10.738;2022-09-29T18:50:15;4.40;;;3.00;;
74293;SDS011;62688;59.904;10.738;2022-09-29T18:52:46;4.15;;;2.97;;
74293;SDS011;62688;59.904;10.738;2022-09-29T18:55:13;5.05;;;3.28;;
74293;SDS011;62688;59.904;10.738;2022-09-29T18:57:41;6.13;;;3.35;;
74293;SDS011;62688;59.904;10.738;2022-09-29T19:00:08;5.75;;;3.38;;